Carland, Michigan
Current Conditions -  °F | °C
As of 5:15 PM on Sunday 21 Dec 2014 (Local Time) from KRNP Reporting Station
Overcast Overcast  
Wind Chill: 26°   Ceiling: 5000
Heat Index: 32°   Visibility: 7mi
Dew Point: 28°   Wind: 7mph
Humidity: 85%   Direction: 140°SE
Pressure: 30.2"   Gusts: NA
Location:  43.0981°N, 84.3788°W
Report Text: KRNP 212215Z AUTO 14006KT 7SM OVC050 00/M02 A3020 RMK AO2 T00001022
Loading
Personal Weather Stations






























Interactive Weather Map New forecast layout! Learn more

10-Day Weather Forecast

Advertisements
Track Severe Weather on mobile